Time;durP1;ratioP1;P1;durP2;ratioP2;P2;SDS_P1;SDS_P2;PMS_P1;PMS_P2;Temp;Humidity;BMP_temperature;BMP_pressure;BME280_temperature;BME280_humidity;BME280_pressure;Samples;Min_cycle;Max_cycle;Signal;HPM_P1;HPM_P2
2024/03/29 01:44:23;;;;;;;1.05;0.70;;;15.30;70.70;;;;;;4175979;28;20071;-43
2024/03/29 01:47:03;;;;;;;2.33;0.70;;;15.30;70.50;;;;;;4201378;27;20075;-43
2024/03/29 01:49:45;;;;;;;3.65;0.63;;;15.30;70.90;;;;;;4202219;28;20066;-42
2024/03/29 01:52:25;;;;;;;4.68;1.08;;;15.20;70.60;;;;;;4202198;28;20451;-43
2024/03/29 01:55:07;;;;;;;4.15;1.55;;;15.20;70.80;;;;;;4185821;28;20070;-43
2024/03/29 01:57:47;;;;;;;2.03;1.10;;;15.20;71.00;;;;;;4174285;28;20055;-44
2024/03/29 02:00:28;;;;;;;5.05;1.30;;;15.20;71.10;;;;;;4189694;28;20055;-44
2024/03/29 02:03:13;;;;;;;6.88;1.48;;;15.20;71.10;;;;;;4202151;28;20541;-44
2024/03/29 02:05:55;;;;;;;3.75;0.88;;;15.20;71.20;;;;;;4184211;28;20055;-48
2024/03/29 02:08:35;;;;;;;2.25;0.75;;;15.20;71.40;;;;;;4188615;28;20082;-48
2024/03/29 02:11:16;;;;;;;2.67;0.68;;;15.20;71.20;;;;;;4191215;28;20198;-47
2024/03/29 02:13:56;;;;;;;1.23;0.80;;;15.20;70.60;;;;;;4201859;28;20137;-44
2024/03/29 02:16:37;;;;;;;2.63;0.70;;;15.20;70.60;;;;;;4187899;28;20054;-49
2024/03/29 02:19:18;;;;;;;4.25;0.95;;;15.20;70.70;;;;;;4187561;28;20087;-49
2024/03/29 02:22:01;;;;;;;1.75;0.77;;;15.10;70.80;;;;;;4187773;28;20148;-49
2024/03/29 02:24:43;;;;;;;1.98;1.00;;;15.10;70.20;;;;;;4188788;28;20149;-46
2024/03/29 02:27:23;;;;;;;;;;;15.10;70.10;;;;;;4205116;28;20139;-47
2024/03/29 02:30:04;;;;;;;4.13;0.77;;;15.10;70.00;;;;;;4202449;28;19935;-45
2024/03/29 02:32:44;;;;;;;2.40;0.80;;;15.10;72.20;;;;;;4184535;28;20068;-48
2024/03/29 02:35:25;;;;;;;2.72;0.95;;;15.10;72.80;;;;;;4171815;28;20064;-45
2024/03/29 02:38:05;;;;;;;4.05;0.98;;;15.20;72.60;;;;;;4171524;28;20186;-47
2024/03/29 02:40:46;;;;;;;2.47;0.70;;;15.20;72.60;;;;;;4184371;27;20047;-48
2024/03/29 02:43:27;;;;;;;6.03;0.82;;;15.30;72.50;;;;;;4189558;28;20056;-49
2024/03/29 02:46:07;;;;;;;2.67;0.90;;;15.30;72.10;;;;;;4202124;27;20497;-47
2024/03/29 02:48:46;;;;;;;4.30;1.10;;;15.30;71.80;;;;;;4204133;27;20054;-46
2024/03/29 02:51:25;;;;;;;4.53;0.88;;;15.30;71.30;;;;;;4202611;27;20401;-46
2024/03/29 02:54:05;;;;;;;3.70;0.80;;;15.20;70.70;;;;;;4187036;28;20054;-47
2024/03/29 02:56:46;;;;;;;2.38;0.77;;;15.20;70.60;;;;;;4187162;28;20051;-47
2024/03/29 02:59:26;;;;;;;2.95;0.73;;;15.30;73.00;;;;;;4187437;28;20132;-47
2024/03/29 03:02:05;;;;;;;1.77;0.70;;;15.30;73.60;;;;;;4186970;28;20048;-47
2024/03/29 03:04:45;;;;;;;3.30;0.75;;;15.40;73.60;;;;;;4174685;28;20101;-46
2024/03/29 03:13:22;;;;;;;0.85;0.50;;;15.60;72.40;;;;;;4191753;28;20143;-48
2024/03/29 03:16:02;;;;;;;;;;;15.60;72.40;;;;;;4202321;28;20185;-49
2024/03/29 03:18:42;;;;;;;2.83;1.05;;;15.60;72.40;;;;;;4186203;28;19927;-50
2024/03/29 03:21:22;;;;;;;2.95;0.73;;;15.70;73.00;;;;;;4162978;28;20073;-51
2024/03/29 03:24:04;;;;;;;3.50;0.80;;;15.60;73.30;;;;;;4172043;28;20063;-51
2024/03/29 03:26:43;;;;;;;3.42;0.73;;;15.70;72.70;;;;;;4188431;28;20078;-48
2024/03/29 03:29:24;;;;;;;1.40;0.63;;;15.70;72.80;;;;;;4204105;27;20090;-48
2024/03/29 03:32:05;;;;;;;3.38;0.60;;;15.70;72.80;;;;;;4185241;28;20059;-51
2024/03/29 03:34:45;;;;;;;1.65;0.52;;;15.80;72.70;;;;;;4185740;28;20098;-50
2024/03/29 03:37:24;;;;;;;2.08;0.60;;;15.80;72.10;;;;;;4186679;28;20054;-47
2024/03/29 03:40:05;;;;;;;1.92;0.60;;;15.90;72.10;;;;;;4186560;28;20074;-53
2024/03/29 03:42:44;;;;;;;6.13;0.70;;;15.90;71.80;;;;;;4196661;28;20129;-51
2024/03/29 03:45:26;;;;;;;2.47;0.63;;;15.90;71.80;;;;;;4186163;28;20067;-49
2024/03/29 03:48:07;;;;;;;2.40;0.90;;;15.90;72.40;;;;;;4186077;28;20494;-50
2024/03/29 03:50:47;;;;;;;3.47;0.80;;;15.90;72.50;;;;;;4171164;28;20557;-52
2024/03/29 03:53:26;;;;;;;2.58;0.70;;;15.90;71.90;;;;;;4170206;28;20407;-51
2024/03/29 03:56:10;;;;;;;3.00;0.80;;;16.00;72.00;;;;;;4160310;28;20047;-52
2024/03/29 03:58:50;;;;;;;1.98;0.50;;;16.00;72.10;;;;;;4176087;28;20051;-47
2024/03/29 04:01:31;;;;;;;3.03;0.60;;;16.00;72.00;;;;;;4186002;28;20051;-51
2024/03/29 04:04:10;;;;;;;3.47;0.90;;;16.10;72.10;;;;;;4174342;28;20055;-49
2024/03/29 04:06:50;;;;;;;1.95;0.68;;;16.10;71.70;;;;;;4185964;28;20044;-50
2024/03/29 04:09:29;;;;;;;1.38;0.55;;;16.10;71.80;;;;;;4186535;28;20060;-50
2024/03/29 04:12:09;;;;;;;2.60;0.80;;;16.10;71.70;;;;;;4184608;28;20386;-49
2024/03/29 04:14:48;;;;;;;1.27;0.77;;;16.10;71.20;;;;;;4202677;28;20059;-49
2024/03/29 04:17:30;;;;;;;1.52;0.75;;;16.10;71.00;;;;;;4202248;28;20402;-49
2024/03/29 04:20:09;;;;;;;2.03;1.23;;;16.10;71.20;;;;;;4202352;28;20398;-51
2024/03/29 04:22:49;;;;;;;1.95;0.60;;;16.10;71.20;;;;;;4201743;28;20097;-48
2024/03/29 04:25:29;;;;;;;1.48;1.00;;;16.10;71.70;;;;;;4185281;28;20054;-52
2024/03/29 04:28:08;;;;;;;2.20;0.90;;;16.10;72.10;;;;;;4201819;28;20075;-52
2024/03/29 04:30:51;;;;;;;2.33;0.90;;;16.10;72.10;;;;;;4194349;28;20146;-49
2024/03/29 04:33:33;;;;;;;4.50;0.90;;;16.20;71.60;;;;;;4202316;28;20176;-49
2024/03/29 04:36:12;;;;;;;2.35;0.70;;;16.20;71.20;;;;;;4182953;28;20199;-49
2024/03/29 04:38:53;;;;;;;2.45;0.77;;;16.20;71.10;;;;;;4184465;28;20047;-50
2024/03/29 04:41:34;;;;;;;2.15;0.50;;;16.20;70.60;;;;;;4194816;28;20148;-52
2024/03/29 04:44:23;;;;;;;1.00;0.55;;;16.10;71.00;;;;;;4183610;28;20110;-50
2024/03/29 04:47:04;;;;;;;3.80;1.30;;;16.10;71.20;;;;;;4185142;28;20105;-50
2024/03/29 04:49:45;;;;;;;3.70;0.80;;;16.10;71.80;;;;;;4185889;28;20051;-49
2024/03/29 04:52:26;;;;;;;;;;;16.10;71.70;;;;;;4185302;28;20055;-48
2024/03/29 04:55:06;;;;;;;1.48;0.52;;;16.10;71.80;;;;;;4184087;28;20294;-50
2024/03/29 04:57:46;;;;;;;2.60;0.75;;;16.20;71.80;;;;;;4193505;28;20062;-50
2024/03/29 05:00:26;;;;;;;2.95;0.50;;;16.20;71.80;;;;;;4201602;28;20139;-48
2024/03/29 05:03:06;;;;;;;2.67;0.85;;;16.20;71.70;;;;;;4174335;28;20109;-48
2024/03/29 05:05:48;;;;;;;2.42;0.63;;;16.20;71.40;;;;;;4202249;28;20205;-48
2024/03/29 05:08:29;;;;;;;2.95;0.80;;;16.30;70.90;;;;;;4202063;28;20117;-48
2024/03/29 05:11:10;;;;;;;1.73;0.60;;;16.30;71.20;;;;;;4189346;28;20055;-51
2024/03/29 05:13:50;;;;;;;2.58;0.60;;;16.30;71.00;;;;;;4191002;28;20075;-51
2024/03/29 05:16:32;;;;;;;1.42;0.70;;;16.30;71.40;;;;;;4190364;28;20055;-49
2024/03/29 05:19:12;;;;;;;;;;;16.30;71.30;;;;;;4179823;28;20597;-52
2024/03/29 05:21:54;;;;;;;1.55;0.73;;;16.40;71.60;;;;;;4187355;28;19928;-48
2024/03/29 05:24:33;;;;;;;2.03;0.50;;;16.30;71.20;;;;;;4185448;28;20048;-48
2024/03/29 05:27:14;;;;;;;2.25;0.60;;;16.40;71.30;;;;;;4194792;28;20093;-48
2024/03/29 05:29:54;;;;;;;3.03;0.70;;;16.40;71.10;;;;;;4189376;28;20399;-49
2024/03/29 05:32:35;;;;;;;1.17;0.65;;;16.40;71.00;;;;;;4184950;28;20062;-49
2024/03/29 05:35:15;;;;;;;1.38;0.82;;;16.40;71.60;;;;;;4169549;28;20098;-51
2024/03/29 05:37:56;;;;;;;3.13;0.90;;;16.50;70.80;;;;;;4182660;28;20056;-50
2024/03/29 05:40:37;;;;;;;;;;;16.50;70.50;;;;;;4204688;28;20059;-48
2024/03/29 05:43:17;;;;;;;2.33;1.23;;;16.50;69.60;;;;;;4194000;28;20282;-49
2024/03/29 05:45:58;;;;;;;3.00;0.70;;;16.50;69.70;;;;;;4187764;28;20848;-49
2024/03/29 05:48:38;;;;;;;0.70;0.60;;;16.50;69.80;;;;;;4176847;28;20087;-52
2024/03/29 05:51:18;;;;;;;2.00;0.80;;;16.40;69.50;;;;;;4184196;28;20073;-49
2024/03/29 05:53:59;;;;;;;2.30;0.93;;;16.40;69.60;;;;;;4181993;28;20310;-49
2024/03/29 05:56:40;;;;;;;2.78;0.80;;;16.30;69.80;;;;;;4184582;27;20063;-50
2024/03/29 05:59:20;;;;;;;1.15;0.80;;;16.30;69.40;;;;;;4202981;28;20051;-48
2024/03/29 06:02:00;;;;;;;1.77;0.75;;;16.20;69.90;;;;;;4202403;28;20550;-49
2024/03/29 06:04:40;;;;;;;1.58;0.90;;;16.20;70.20;;;;;;4204441;28;20406;-48
2024/03/29 06:07:20;;;;;;;2.78;0.70;;;16.20;71.00;;;;;;4198907;28;20089;-50
2024/03/29 06:10:04;;;;;;;2.33;0.98;;;16.20;71.20;;;;;;4175246;28;20497;-48
2024/03/29 06:12:44;;;;;;;3.72;1.42;;;16.30;70.80;;;;;;4176597;28;20055;-51
2024/03/29 06:18:22;;;;;;;1.35;0.80;;;16.30;70.70;;;;;;4186979;28;20186;-49
2024/03/29 06:21:02;;;;;;;1.83;0.85;;;16.40;70.70;;;;;;4192157;28;20125;-49
2024/03/29 06:23:42;;;;;;;2.10;1.00;;;16.40;70.20;;;;;;4190340;28;20060;-48
2024/03/29 06:26:24;;;;;;;2.40;0.77;;;16.50;70.00;;;;;;4201672;28;20052;-49
2024/03/29 06:29:04;;;;;;;;;;;16.50;70.00;;;;;;4189879;28;20063;-48
2024/03/29 06:31:44;;;;;;;1.08;0.70;;;16.50;70.50;;;;;;4186789;28;20019;-47
2024/03/29 06:34:24;;;;;;;2.60;0.75;;;16.50;70.20;;;;;;4187082;28;20129;-48
2024/03/29 06:37:04;;;;;;;3.28;0.82;;;16.40;69.70;;;;;;4175128;28;20050;-52
2024/03/29 06:39:45;;;;;;;3.05;0.90;;;16.50;69.50;;;;;;4171831;28;20106;-52
2024/03/29 06:42:26;;;;;;;2.30;0.80;;;16.50;69.70;;;;;;4193818;28;20082;-49
2024/03/29 06:45:06;;;;;;;;;;;16.50;69.50;;;;;;4199301;28;20055;-51
2024/03/29 06:47:46;;;;;;;2.60;0.70;;;16.50;69.60;;;;;;4175689;28;19942;-51
2024/03/29 06:50:26;;;;;;;0.80;0.50;;;16.40;70.00;;;;;;4186529;28;20094;-51
2024/03/29 06:53:06;;;;;;;7.10;1.30;;;16.30;69.90;;;;;;4187053;28;20055;-48
2024/03/29 06:55:46;;;;;;;1.98;0.52;;;16.30;69.90;;;;;;4188479;28;20051;-51
2024/03/29 06:58:27;;;;;;;1.40;0.28;;;16.30;70.70;;;;;;4167983;27;20083;-46
2024/03/29 07:01:09;;;;;;;1.75;0.60;;;16.30;70.50;;;;;;4186140;28;20094;-46
2024/03/29 07:03:49;;;;;;;1.45;0.35;;;16.30;69.10;;;;;;4175108;28;20055;-48
2024/03/29 07:06:29;;;;;;;2.95;0.70;;;16.40;67.30;;;;;;4174559;28;20122;-48
2024/03/29 07:09:09;;;;;;;2.75;0.80;;;16.40;65.90;;;;;;4185631;28;20510;-46
2024/03/29 07:11:54;;;;;;;0.68;0.40;;;16.40;65.60;;;;;;4165886;28;20098;-50
2024/03/29 07:14:36;;;;;;;1.83;0.60;;;16.40;64.90;;;;;;4186365;28;20064;-48
2024/03/29 07:17:16;;;;;;;1.75;0.50;;;16.40;63.80;;;;;;4155281;28;20056;-50
2024/03/29 07:19:56;;;;;;;1.65;0.30;;;16.40;63.20;;;;;;4174355;28;20145;-48
2024/03/29 07:22:37;;;;;;;0.73;0.57;;;16.40;62.90;;;;;;4199206;28;20067;-48
2024/03/29 07:25:17;;;;;;;3.90;0.52;;;16.40;62.00;;;;;;4185949;28;20129;-48
2024/03/29 07:27:57;;;;;;;1.30;0.38;;;16.30;62.20;;;;;;4186338;28;20509;-49
2024/03/29 07:30:39;;;;;;;0.98;0.40;;;16.20;62.50;;;;;;4186667;28;20125;-51
2024/03/29 07:33:21;;;;;;;;;;;16.20;62.70;;;;;;4186113;28;20075;-46
2024/03/29 07:36:01;;;;;;;1.55;0.40;;;16.10;62.90;;;;;;4190281;28;19927;-48
2024/03/29 07:38:40;;;;;;;2.15;1.05;;;16.00;63.20;;;;;;4186262;28;20055;-48
2024/03/29 07:41:21;;;;;;;2.38;0.57;;;16.00;63.30;;;;;;4190462;28;20502;-46
2024/03/29 07:44:03;;;;;;;1.25;0.45;;;16.00;63.50;;;;;;4202087;28;20054;-47
2024/03/29 07:46:46;;;;;;;0.65;0.60;;;16.00;63.70;;;;;;4196948;27;20170;-50
2024/03/29 07:49:27;;;;;;;0.45;0.45;;;16.00;63.90;;;;;;4191227;27;20055;-47
2024/03/29 07:52:08;;;;;;;0.90;0.40;;;16.00;63.90;;;;;;4186221;28;20048;-48
2024/03/29 07:54:49;;;;;;;;;;;16.00;63.80;;;;;;4163151;28;20047;-50
2024/03/29 07:57:28;;;;;;;0.28;0.28;;;16.10;63.60;;;;;;4185611;28;20401;-48
2024/03/29 08:00:10;;;;;;;1.48;0.63;;;16.10;63.30;;;;;;4179402;28;20055;-49
2024/03/29 08:02:53;;;;;;;;;;;16.20;63.40;;;;;;4175040;28;20094;-46
2024/03/29 08:05:33;;;;;;;0.32;0.28;;;16.20;63.20;;;;;;4197263;28;20029;-48
2024/03/29 08:08:13;;;;;;;1.25;0.40;;;16.20;63.20;;;;;;4185799;28;20056;-49
2024/03/29 08:10:54;;;;;;;0.47;0.43;;;16.20;63.10;;;;;;4198403;27;20143;-48
2024/03/29 08:13:34;;;;;;;0.30;0.30;;;16.20;63.20;;;;;;4186946;28;20063;-48
2024/03/29 08:16:16;;;;;;;0.73;0.30;;;16.20;63.30;;;;;;4196467;28;20493;-49
2024/03/29 08:18:58;;;;;;;2.33;0.43;;;16.10;63.30;;;;;;4200988;28;20398;-49
2024/03/29 08:21:38;;;;;;;0.35;0.30;;;16.10;63.40;;;;;;4193093;28;20059;-49
2024/03/29 08:24:18;;;;;;;0.73;0.17;;;16.10;63.60;;;;;;4185876;28;20063;-46
2024/03/29 08:26:59;;;;;;;3.05;0.70;;;16.00;63.70;;;;;;4194103;28;20097;-47
2024/03/29 08:29:42;;;;;;;0.80;0.80;;;16.00;63.80;;;;;;4191084;28;20521;-47
2024/03/29 08:32:22;;;;;;;1.23;0.38;;;15.90;63.80;;;;;;4183411;28;20052;-47
2024/03/29 08:35:04;;;;;;;0.70;0.70;;;15.90;63.80;;;;;;4186015;28;20114;-47
2024/03/29 08:37:44;;;;;;;1.38;0.50;;;15.90;63.90;;;;;;4178221;28;20093;-48
2024/03/29 08:40:24;;;;;;;1.70;0.50;;;15.90;63.70;;;;;;4183364;28;20056;-50
2024/03/29 08:43:05;;;;;;;1.75;0.50;;;16.00;63.90;;;;;;4170872;28;20506;-51
2024/03/29 08:45:45;;;;;;;2.03;0.60;;;15.90;64.00;;;;;;4174373;28;20059;-48
2024/03/29 08:48:25;;;;;;;1.02;0.60;;;15.90;64.30;;;;;;4198622;28;20051;-50
2024/03/29 08:51:06;;;;;;;0.60;0.60;;;15.90;64.50;;;;;;4186783;28;20134;-47
2024/03/29 08:53:46;;;;;;;;;;;15.90;64.50;;;;;;4187817;28;20072;-48
2024/03/29 08:56:27;;;;;;;1.02;0.52;;;16.10;64.40;;;;;;4186144;28;19978;-48
2024/03/29 08:59:07;;;;;;;0.47;0.40;;;16.00;64.10;;;;;;4186680;28;20488;-46
2024/03/29 09:01:49;;;;;;;1.77;0.75;;;16.10;64.10;;;;;;4185716;28;20066;-46
2024/03/29 09:04:29;;;;;;;0.40;0.40;;;16.10;64.20;;;;;;4191849;28;20391;-47
2024/03/29 09:07:10;;;;;;;1.77;0.63;;;16.10;64.20;;;;;;4201908;28;20062;-49
2024/03/29 09:09:51;;;;;;;0.82;0.40;;;16.10;64.30;;;;;;4202043;28;20055;-46
2024/03/29 09:12:31;;;;;;;1.48;0.50;;;16.10;64.50;;;;;;4202405;28;20433;-46
2024/03/29 09:15:13;;;;;;;0.88;0.50;;;16.00;65.50;;;;;;4196987;28;20059;-46
2024/03/29 09:17:54;;;;;;;3.83;0.68;;;16.00;64.80;;;;;;4199321;28;20051;-47
2024/03/29 09:20:35;;;;;;;0.50;0.50;;;16.00;65.00;;;;;;4190359;28;20066;-49
2024/03/29 09:23:20;;;;;;;0.80;0.50;;;16.00;65.20;;;;;;4202350;28;20055;-48
2024/03/29 09:26:00;;;;;;;1.75;0.50;;;16.00;65.40;;;;;;4202155;28;20046;-46
2024/03/29 09:28:40;;;;;;;0.73;0.32;;;15.90;65.70;;;;;;4203208;28;20406;-47
2024/03/29 09:31:20;;;;;;;0.30;0.30;;;15.90;66.30;;;;;;4188413;28;20067;-45
2024/03/29 09:34:00;;;;;;;0.85;0.50;;;16.00;67.00;;;;;;4191267;28;20097;-45
2024/03/29 09:36:40;;;;;;;0.40;0.40;;;15.90;67.20;;;;;;4200505;28;20062;-46
2024/03/29 09:39:21;;;;;;;0.90;0.40;;;15.90;67.40;;;;;;4195944;28;20478;-46
2024/03/29 09:42:03;;;;;;;;;;;15.90;67.70;;;;;;4186353;28;20055;-45
2024/03/29 09:44:45;;;;;;;0.30;0.30;;;15.90;67.90;;;;;;4185294;28;19927;-48
2024/03/29 09:47:28;;;;;;;1.02;0.47;;;15.90;68.10;;;;;;4185900;28;20288;-46
2024/03/29 09:50:09;;;;;;;0.88;0.50;;;15.80;68.30;;;;;;4183250;28;20051;-47
2024/03/29 09:52:51;;;;;;;0.50;0.43;;;15.90;68.40;;;;;;4182331;28;20138;-46
2024/03/29 09:55:33;;;;;;;1.13;0.52;;;15.80;68.60;;;;;;4176795;28;20051;-45
2024/03/29 09:58:16;;;;;;;0.63;0.40;;;15.80;69.00;;;;;;4174324;28;20082;-47
2024/03/29 10:00:56;;;;;;;0.98;0.40;;;15.80;69.20;;;;;;4177255;28;20055;-46
2024/03/29 10:03:41;;;;;;;0.85;0.70;;;15.80;69.50;;;;;;4150431;28;20047;-45
2024/03/29 10:06:25;;;;;;;2.05;0.80;;;15.80;69.60;;;;;;4172855;28;20406;-46
2024/03/29 10:09:05;;;;;;;0.50;0.50;;;15.90;69.80;;;;;;4185737;28;20063;-47
2024/03/29 10:11:46;;;;;;;1.63;0.57;;;15.90;69.80;;;;;;4185232;28;20048;-48
2024/03/29 10:14:32;;;;;;;1.08;0.52;;;15.80;69.90;;;;;;4176920;28;20051;-46
2024/03/29 10:17:12;;;;;;;0.90;0.80;;;15.90;69.90;;;;;;4182121;28;20059;-46
2024/03/29 10:19:53;;;;;;;1.55;0.70;;;15.90;70.00;;;;;;4163294;28;20158;-47
2024/03/29 10:22:37;;;;;;;1.27;0.70;;;15.80;70.10;;;;;;4169199;28;20064;-51
2024/03/29 10:25:18;;;;;;;0.63;0.60;;;15.90;71.10;;;;;;4177756;28;20197;-48
2024/03/29 10:28:01;;;;;;;0.73;0.50;;;15.80;70.30;;;;;;4192387;28;20059;-48
2024/03/29 10:30:41;;;;;;;1.65;0.60;;;15.90;70.60;;;;;;4168185;28;20063;-48
2024/03/29 10:33:21;;;;;;;0.60;0.60;;;15.90;70.70;;;;;;4188195;28;20567;-45
2024/03/29 10:36:04;;;;;;;0.65;0.65;;;15.90;70.70;;;;;;4188128;28;20048;-47
2024/03/29 10:38:44;;;;;;;0.73;0.50;;;15.90;70.80;;;;;;4189828;28;20158;-45
2024/03/29 10:41:25;;;;;;;1.15;0.68;;;15.90;70.50;;;;;;4194802;28;20114;-44
2024/03/29 10:44:10;;;;;;;1.77;0.68;;;15.90;70.40;;;;;;4191466;28;20055;-45
2024/03/29 10:46:53;;;;;;;0.55;0.50;;;15.90;70.80;;;;;;4177521;28;20422;-49
2024/03/29 10:49:36;;;;;;;2.80;1.65;;;15.90;71.00;;;;;;4204034;28;20378;-47
2024/03/29 10:52:17;;;;;;;1.58;0.85;;;16.00;71.20;;;;;;4186022;28;20501;-49
2024/03/29 10:54:58;;;;;;;0.80;0.80;;;16.10;71.00;;;;;;4164110;28;20127;-44
2024/03/29 10:57:42;;;;;;;0.63;0.63;;;16.30;71.40;;;;;;4185403;28;20098;-49
2024/03/29 11:00:25;;;;;;;1.20;1.13;;;16.40;69.80;;;;;;4188101;28;20094;-49
2024/03/29 11:03:15;;;;;;;0.75;0.75;;;16.50;69.50;;;;;;4187727;28;20055;-48
2024/03/29 11:06:04;;;;;;;0.88;0.70;;;16.50;69.40;;;;;;4187858;28;20128;-48
2024/03/29 11:08:47;;;;;;;0.75;0.75;;;16.60;70.30;;;;;;4193426;27;20063;-48
2024/03/29 11:11:30;;;;;;;1.85;0.93;;;16.60;69.50;;;;;;4204124;27;20090;-47
2024/03/29 11:14:16;;;;;;;1.25;1.08;;;16.60;69.20;;;;;;4175556;28;20509;-49
2024/03/29 11:16:59;;;;;;;1.75;0.70;;;16.60;69.50;;;;;;4189478;27;20105;-49
2024/03/29 11:19:39;;;;;;;3.10;0.80;;;16.50;69.80;;;;;;4200739;27;20054;-47
2024/03/29 11:22:20;;;;;;;1.23;0.95;;;16.60;70.40;;;;;;4202939;28;20132;-50
2024/03/29 11:25:03;;;;;;;1.02;0.90;;;16.50;70.50;;;;;;4198809;28;20058;-49
2024/03/29 11:27:43;;;;;;;2.03;0.80;;;16.50;70.70;;;;;;4203714;28;20393;-47
2024/03/29 11:30:23;;;;;;;2.08;1.00;;;16.50;71.60;;;;;;4187515;28;20387;-47
2024/03/29 11:33:04;;;;;;;1.15;1.10;;;16.50;70.80;;;;;;4188356;28;20607;-46
2024/03/29 11:35:47;;;;;;;1.02;0.90;;;16.50;71.00;;;;;;4187629;28;20541;-46
2024/03/29 11:38:32;;;;;;;1.88;0.80;;;16.50;71.10;;;;;;4177963;28;20043;-46
2024/03/29 11:41:14;;;;;;;1.35;1.25;;;16.50;70.90;;;;;;4189725;28;20091;-47
2024/03/29 11:43:55;;;;;;;5.30;1.42;;;16.50;70.90;;;;;;4203750;28;20075;-49
2024/03/29 11:46:35;;;;;;;1.50;1.20;;;16.50;70.90;;;;;;4203669;28;20062;-47
2024/03/29 11:49:17;;;;;;;2.95;1.33;;;16.40;70.80;;;;;;4202820;28;20441;-48
2024/03/29 11:52:05;;;;;;;1.92;1.20;;;16.40;71.90;;;;;;4186840;28;20042;-48
2024/03/29 11:54:45;;;;;;;1.20;1.10;;;16.40;70.90;;;;;;4183496;28;20134;-47
2024/03/29 11:57:25;;;;;;;3.42;1.38;;;16.40;70.90;;;;;;4186128;28;20157;-47
2024/03/29 12:00:07;;;;;;;1.35;1.20;;;16.40;71.00;;;;;;4185953;28;20517;-47
2024/03/29 12:02:48;;;;;;;2.55;1.10;;;16.40;71.00;;;;;;4203854;28;20081;-46
2024/03/29 12:05:30;;;;;;;1.55;1.15;;;16.40;71.00;;;;;;4182823;28;20060;-46
2024/03/29 12:08:10;;;;;;;2.15;1.27;;;16.30;70.70;;;;;;4183446;28;20083;-46
2024/03/29 12:10:50;;;;;;;2.30;1.83;;;16.40;71.10;;;;;;4170601;28;20052;-46
2024/03/29 12:13:31;;;;;;;1.98;1.35;;;16.30;71.00;;;;;;4169880;28;20051;-45
2024/03/29 12:16:12;;;;;;;2.30;1.60;;;16.30;70.70;;;;;;4175096;28;20055;-45
2024/03/29 12:18:52;;;;;;;1.73;1.60;;;16.30;71.10;;;;;;4195109;28;20062;-46
2024/03/29 12:21:33;;;;;;;1.58;1.48;;;16.30;71.20;;;;;;4192291;28;20051;-46
2024/03/29 12:24:13;;;;;;;;;;;16.30;71.20;;;;;;4203621;28;20427;-45
2024/03/29 12:26:53;;;;;;;2.58;1.38;;;16.30;71.50;;;;;;4203694;28;19966;-46
2024/03/29 12:29:35;;;;;;;1.52;0.95;;;16.30;71.70;;;;;;4195879;28;20111;-46
2024/03/29 12:32:19;;;;;;;1.35;1.25;;;16.30;71.30;;;;;;4200857;28;20536;-45
2024/03/29 12:35:11;;;;;;;1.65;1.55;;;16.30;71.00;;;;;;4202149;28;20055;-45
2024/03/29 12:37:53;;;;;;;2.47;1.60;;;16.30;71.50;;;;;;4185851;28;20133;-47
2024/03/29 12:40:35;;;;;;;2.35;2.03;;;16.40;71.60;;;;;;4189728;28;20055;-48
2024/03/29 12:43:19;;;;;;;5.22;1.90;;;16.40;71.60;;;;;;4201011;28;20047;-46
2024/03/29 12:46:01;;;;;;;2.95;1.73;;;16.40;71.30;;;;;;4200916;28;20522;-45
2024/03/29 12:48:41;;;;;;;2.80;1.50;;;16.50;71.30;;;;;;4202186;28;20051;-45
2024/03/29 12:51:20;;;;;;;1.80;1.70;;;16.50;71.40;;;;;;4202349;28;20101;-45
2024/03/29 12:54:03;;;;;;;1.73;1.60;;;16.50;71.20;;;;;;4201751;28;20402;-45
2024/03/29 12:56:44;;;;;;;2.08;1.63;;;16.50;71.40;;;;;;4190813;28;20503;-45
2024/03/29 12:59:24;;;;;;;1.90;1.80;;;16.60;72.10;;;;;;4151317;28;20055;-44
2024/03/29 13:02:04;;;;;;;5.03;2.80;;;16.60;71.70;;;;;;4168969;28;20072;-47
2024/03/29 13:04:45;;;;;;;2.30;2.20;;;16.60;71.40;;;;;;4178060;28;20114;-45
2024/03/29 13:07:27;;;;;;;2.22;2.03;;;16.60;71.20;;;;;;4167127;28;20072;-45
2024/03/29 13:10:13;;;;;;;4.07;2.63;;;16.70;70.70;;;;;;4196841;28;20105;-46
2024/03/29 13:12:53;;;;;;;3.95;2.90;;;16.70;70.50;;;;;;4191016;28;20125;-45
2024/03/29 13:15:35;;;;;;;3.35;3.00;;;16.70;70.70;;;;;;4190694;28;20051;-44
2024/03/29 13:18:17;;;;;;;4.72;3.00;;;16.80;70.60;;;;;;4201682;28;20048;-45
2024/03/29 13:20:59;;;;;;;;;;;16.80;70.50;;;;;;4202710;28;20078;-45
2024/03/29 13:23:39;;;;;;;2.63;1.80;;;16.80;70.50;;;;;;4202214;28;19927;-48
2024/03/29 13:26:20;;;;;;;2.28;1.70;;;16.80;71.30;;;;;;4185345;28;20095;-46
2024/03/29 13:29:00;;;;;;;3.30;2.08;;;16.80;71.10;;;;;;4173966;28;20051;-48
2024/03/29 13:31:40;;;;;;;2.00;1.90;;;16.90;70.90;;;;;;4162955;28;20087;-47
2024/03/29 13:34:20;;;;;;;2.45;2.20;;;16.90;71.10;;;;;;4200033;28;20051;-47
2024/03/29 13:37:00;;;;;;;2.45;2.25;;;17.00;71.70;;;;;;4181234;28;20063;-48
2024/03/29 13:39:41;;;;;;;1.98;1.85;;;17.00;69.90;;;;;;4198867;28;20469;-49
2024/03/29 13:42:23;;;;;;;2.20;2.10;;;17.00;68.80;;;;;;4200854;28;20094;-49
2024/03/29 13:45:04;;;;;;;2.50;2.30;;;16.90;67.90;;;;;;4181688;28;20047;-47
2024/03/29 13:47:46;;;;;;;2.53;2.40;;;16.90;67.60;;;;;;4182891;28;20098;-46
2024/03/29 13:50:26;;;;;;;2.70;2.50;;;16.90;67.40;;;;;;4183879;28;20139;-49
2024/03/29 13:53:06;;;;;;;4.07;2.47;;;16.90;67.40;;;;;;4155569;28;20155;-47
2024/03/29 13:55:46;;;;;;;2.78;2.40;;;16.90;67.70;;;;;;4187248;28;20055;-49
2024/03/29 13:58:28;;;;;;;2.97;2.33;;;16.90;67.40;;;;;;4201092;28;20402;-46
2024/03/29 14:01:08;;;;;;;4.88;2.55;;;16.80;67.50;;;;;;4178929;28;20083;-46
2024/03/29 14:03:49;;;;;;;1.95;1.40;;;16.90;67.70;;;;;;4156471;28;20126;-47
2024/03/29 14:06:33;;;;;;;2.80;1.67;;;16.80;67.40;;;;;;4196588;28;20563;-48
2024/03/29 14:09:13;;;;;;;1.98;1.88;;;16.80;67.10;;;;;;4175633;28;20102;-48
2024/03/29 14:11:53;;;;;;;5.22;2.10;;;16.80;66.40;;;;;;4175402;28;20097;-50
2024/03/29 14:14:35;;;;;;;0.80;0.80;;;16.80;66.70;;;;;;4186956;28;20058;-51
2024/03/29 14:17:15;;;;;;;1.65;0.85;;;16.80;65.50;;;;;;4186730;28;20140;-51
2024/03/29 14:19:56;;;;;;;1.75;0.98;;;16.70;65.30;;;;;;4175268;28;20094;-49
2024/03/29 14:22:37;;;;;;;1.05;0.95;;;16.70;66.00;;;;;;4192103;28;20109;-48
2024/03/29 14:25:17;;;;;;;1.33;1.10;;;16.70;65.00;;;;;;4191561;28;20063;-49
2024/03/29 14:27:59;;;;;;;3.33;1.20;;;16.70;64.90;;;;;;4196426;28;20579;-49
2024/03/29 14:30:40;;;;;;;1.95;1.00;;;16.70;64.70;;;;;;4202973;28;20078;-49
2024/03/29 14:33:28;;;;;;;5.47;1.35;;;16.60;64.70;;;;;;4170798;28;20079;-50
2024/03/29 14:36:08;;;;;;;0.90;0.80;;;16.60;64.70;;;;;;4178977;28;20054;-47
2024/03/29 14:38:49;;;;;;;2.10;1.00;;;16.60;64.80;;;;;;4181164;28;20150;-48
2024/03/29 14:41:29;;;;;;;0.88;0.82;;;16.60;64.70;;;;;;4157331;28;20083;-50
2024/03/29 14:44:10;;;;;;;2.15;0.90;;;16.50;64.60;;;;;;4192423;28;20100;-47
2024/03/29 14:46:51;;;;;;;1.23;1.10;;;16.50;64.80;;;;;;4196432;28;20105;-46
2024/03/29 14:49:32;;;;;;;3.70;0.80;;;16.50;65.00;;;;;;4203893;28;20054;-46
2024/03/29 14:52:12;;;;;;;0.75;0.57;;;16.50;65.00;;;;;;4203365;28;20085;-48
2024/03/29 14:54:52;;;;;;;1.27;1.13;;;16.50;65.20;;;;;;4203343;28;20140;-47
2024/03/29 14:57:32;;;;;;;1.35;0.93;;;16.50;65.30;;;;;;4189445;28;20055;-47
2024/03/29 15:00:14;;;;;;;0.70;0.70;;;16.50;66.30;;;;;;4201253;28;20049;-46
2024/03/29 15:02:56;;;;;;;2.28;0.77;;;16.50;65.50;;;;;;4200801;28;20047;-47
2024/03/29 15:05:43;;;;;;;0.60;0.60;;;16.50;65.40;;;;;;4201389;28;20567;-46
2024/03/29 15:08:23;;;;;;;1.00;0.70;;;16.50;65.50;;;;;;4191913;28;20597;-48
2024/03/29 15:11:06;;;;;;;1.48;0.77;;;16.50;65.60;;;;;;4157696;28;20059;-47
2024/03/29 15:13:46;;;;;;;2.85;0.73;;;16.50;65.70;;;;;;4177669;27;20058;-50
2024/03/29 15:16:27;;;;;;;0.88;0.88;;;16.50;65.90;;;;;;4169681;28;20055;-51
2024/03/29 15:19:09;;;;;;;0.80;0.65;;;16.50;66.30;;;;;;4177006;28;20071;-47
2024/03/29 15:21:49;;;;;;;;;;;16.50;66.60;;;;;;4185009;28;20588;-47
2024/03/29 15:24:29;;;;;;;1.40;1.30;;;16.50;67.00;;;;;;4186702;28;19939;-46
2024/03/29 15:27:26;;;;;;;1.20;0.80;;;16.50;67.40;;;;;;4190825;28;20409;-48
2024/03/29 15:30:06;;;;;;;0.90;0.88;;;16.50;67.60;;;;;;4199966;28;20070;-46
2024/03/29 15:32:46;;;;;;;17.73;3.37;;;16.50;67.60;;;;;;4181599;28;20052;-47
2024/03/29 15:35:28;;;;;;;0.70;0.70;;;16.50;67.70;;;;;;4185588;28;20494;-47
2024/03/29 15:38:11;;;;;;;0.80;0.80;;;16.50;67.80;;;;;;4172884;28;20055;-47
2024/03/29 15:40:54;;;;;;;1.08;1.00;;;16.50;68.00;;;;;;4188572;28;20453;-49
2024/03/29 15:43:36;;;;;;;1.65;0.80;;;16.50;68.00;;;;;;4200988;28;20051;-47
2024/03/29 15:46:16;;;;;;;3.33;0.90;;;16.50;68.20;;;;;;4199847;27;20082;-47
2024/03/29 15:48:57;;;;;;;1.40;0.90;;;16.40;68.40;;;;;;4199889;28;20124;-47
2024/03/29 15:51:38;;;;;;;1.70;0.80;;;16.40;68.70;;;;;;4200148;28;20059;-47
2024/03/29 15:54:19;;;;;;;1.90;1.30;;;16.40;68.50;;;;;;4188507;27;20547;-47